Time;durP1;ratioP1;P1;durP2;ratioP2;P2;SDS_P1;SDS_P2;PMS_P1;PMS_P2;Temp;Humidity;BMP_temperature;BMP_pressure;BME280_temperature;BME280_humidity;BME280_pressure;Samples;Min_cycle;Max_cycle;Signal;HPM_P1;HPM_P2
2024/01/24 00:01:46;;;;;;;12.10;6.10;;;;;;;;;;6057503;23;20171;-91
2024/01/24 00:04:51;;;;;;;14.93;5.37;;;;;;;;;;6060672;23;20171;-92
2024/01/24 00:08:09;;;;;;;12.10;4.93;;;;;;;;;;6063951;23;20236;-90
2024/01/24 00:11:16;;;;;;;10.77;4.80;;;;;;;;;;6062310;23;20159;-91
2024/01/24 00:14:23;;;;;;;13.10;4.93;;;;;;;;;;6064916;23;20176;-91
2024/01/24 00:17:46;;;;;;;10.00;4.40;;;;;;;;;;6065130;23;20177;-90
2024/01/24 00:24:00;;;;;;;13.37;5.30;;;;;;;;;;6092633;23;20187;-93
2024/01/24 00:30:28;;;;;;;14.37;5.63;;;;;;;;;;6093604;23;20170;-93
2024/01/24 00:33:35;;;;;;;13.30;6.10;;;;;;;;;;6091051;23;20198;-93
2024/01/24 00:36:44;;;;;;;13.20;5.40;;;;;;;;;;6092296;23;20235;-94
2024/01/24 00:39:55;;;;;;;13.93;5.53;;;;;;;;;;6080136;23;20281;-91
2024/01/24 00:43:01;;;;;;;12.80;5.57;;;;;;;;;;6090227;23;20215;-93
2024/01/24 00:46:07;;;;;;;14.80;5.63;;;;;;;;;;6089645;23;20179;-91
2024/01/24 00:49:17;;;;;;;13.63;5.27;;;;;;;;;;6090021;23;20186;-93
2024/01/24 00:52:23;;;;;;;18.70;5.67;;;;;;;;;;6090438;23;20154;-92
2024/01/24 00:55:32;;;;;;;10.47;5.20;;;;;;;;;;6090574;23;20167;-92
2024/01/24 00:58:39;;;;;;;14.13;6.30;;;;;;;;;;6091527;23;20224;-92
2024/01/24 01:01:45;;;;;;;15.53;6.10;;;;;;;;;;6088175;23;20155;-91
2024/01/24 01:04:51;;;;;;;12.10;5.97;;;;;;;;;;6087609;23;20170;-93
2024/01/24 01:07:56;;;;;;;12.47;6.13;;;;;;;;;;6087286;23;20202;-91
2024/01/24 01:11:05;;;;;;;17.03;6.50;;;;;;;;;;6088427;23;20174;-91
2024/01/24 01:14:10;;;;;;;14.67;6.47;;;;;;;;;;6090833;23;20170;-92
2024/01/24 01:17:17;;;;;;;16.47;5.83;;;;;;;;;;6088755;23;20187;-91
2024/01/24 01:20:27;;;;;;;13.43;5.23;;;;;;;;;;6089824;23;20239;-90
2024/01/24 01:23:33;;;;;;;12.20;5.23;;;;;;;;;;6090134;23;20166;-92
2024/01/24 01:26:40;;;;;;;9.80;5.13;;;;;;;;;;6091655;23;20204;-92
2024/01/24 01:29:46;;;;;;;16.80;5.87;;;;;;;;;;6091307;23;20176;-93
2024/01/24 01:32:51;;;;;;;13.37;6.00;;;;;;;;;;6070685;23;20286;-94
2024/01/24 01:35:57;;;;;;;19.30;6.63;;;;;;;;;;6062683;23;20159;-92
2024/01/24 01:39:04;;;;;;;18.73;6.90;;;;;;;;;;6060249;23;20175;-91
2024/01/24 01:45:44;;;;;;;14.70;6.27;;;;;;;;;;6059768;23;20171;-90
2024/01/24 01:48:49;;;;;;;13.73;6.30;;;;;;;;;;6059778;23;20252;-92
2024/01/24 01:51:55;;;;;;;16.63;7.00;;;;;;;;;;6060457;23;20154;-91
2024/01/24 01:55:01;;;;;;;14.47;6.70;;;;;;;;;;6060847;23;20622;-90
2024/01/24 01:58:09;;;;;;;14.93;6.73;;;;;;;;;;6060831;23;20204;-92
2024/01/24 02:01:18;;;;;;;13.77;6.97;;;;;;;;;;6059598;23;20502;-91
2024/01/24 02:04:29;;;;;;;13.37;6.23;;;;;;;;;;6061016;23;20159;-91
2024/01/24 02:07:34;;;;;;;17.73;6.43;;;;;;;;;;6060689;23;20170;-92
2024/01/24 02:10:41;;;;;;;14.80;6.43;;;;;;;;;;6059929;23;20220;-91
2024/01/24 02:13:46;;;;;;;19.07;8.83;;;;;;;;;;6059237;23;20170;-90
2024/01/24 02:16:58;;;;;;;18.60;9.00;;;;;;;;;;6059726;23;20498;-92
2024/01/24 02:20:03;;;;;;;18.63;9.37;;;;;;;;;;6060203;23;20202;-90
2024/01/24 02:23:10;;;;;;;22.17;8.97;;;;;;;;;;6059662;23;20175;-92
2024/01/24 02:26:18;;;;;;;20.70;9.57;;;;;;;;;;6061953;23;20205;-92
2024/01/24 02:29:24;;;;;;;21.27;9.37;;;;;;;;;;6060347;23;20199;-91
2024/01/24 02:32:29;;;;;;;19.00;9.77;;;;;;;;;;6061535;23;20183;-91
2024/01/24 02:35:35;;;;;;;20.57;9.60;;;;;;;;;;6060466;23;20211;-90
2024/01/24 02:38:40;;;;;;;22.10;9.90;;;;;;;;;;6061830;23;20179;-92
2024/01/24 02:41:48;;;;;;;26.10;10.23;;;;;;;;;;6060245;23;20159;-93
2024/01/24 02:44:53;;;;;;;20.73;9.40;;;;;;;;;;6060799;23;20184;-92
2024/01/24 02:47:58;;;;;;;23.73;10.10;;;;;;;;;;6061331;23;20194;-93
2024/01/24 02:51:03;;;;;;;22.57;10.17;;;;;;;;;;6059651;23;20171;-92
2024/01/24 02:54:08;;;;;;;24.07;10.07;;;;;;;;;;6058076;23;20226;-90
2024/01/24 02:57:16;;;;;;;21.50;10.27;;;;;;;;;;6074946;23;20236;-93
2024/01/24 03:00:21;;;;;;;20.27;9.63;;;;;;;;;;6078983;23;20233;-91
2024/01/24 03:03:27;;;;;;;20.57;9.67;;;;;;;;;;6059811;23;20234;-91
2024/01/24 03:06:32;;;;;;;19.43;9.40;;;;;;;;;;6059958;23;20160;-92
2024/01/24 03:09:37;;;;;;;19.33;10.73;;;;;;;;;;6058368;23;20201;-92
2024/01/24 03:12:45;;;;;;;24.03;10.57;;;;;;;;;;6074991;23;20176;-92
2024/01/24 03:15:50;;;;;;;25.13;10.80;;;;;;;;;;6074590;23;20255;-93
2024/01/24 03:18:55;;;;;;;20.77;10.17;;;;;;;;;;6057927;23;20204;-92
2024/01/24 03:22:03;;;;;;;22.90;10.47;;;;;;;;;;6057584;23;20224;-92
2024/01/24 03:25:11;;;;;;;19.73;9.70;;;;;;;;;;6073609;23;20171;-92
2024/01/24 03:28:17;;;;;;;27.47;10.93;;;;;;;;;;6057162;23;20179;-91
2024/01/24 03:31:23;;;;;;;26.17;11.33;;;;;;;;;;6057248;23;20180;-92
2024/01/24 03:34:30;;;;;;;21.83;11.33;;;;;;;;;;6058283;23;20181;-93
2024/01/24 03:37:35;;;;;;;22.63;11.20;;;;;;;;;;6075641;23;20170;-90
2024/01/24 03:40:41;;;;;;;24.07;11.30;;;;;;;;;;6057818;23;20175;-92
2024/01/24 03:43:49;;;;;;;22.63;11.60;;;;;;;;;;6075669;23;20182;-89
2024/01/24 03:46:54;;;;;;;23.93;11.73;;;;;;;;;;6057786;23;20249;-93
2024/01/24 03:50:00;;;;;;;25.17;11.50;;;;;;;;;;6075299;23;20308;-92
2024/01/24 03:53:06;;;;;;;25.23;11.57;;;;;;;;;;6059889;23;20558;-92
2024/01/24 03:56:11;;;;;;;26.80;13.00;;;;;;;;;;6075183;23;20225;-89
2024/01/24 03:59:18;;;;;;;21.93;11.00;;;;;;;;;;6057491;23;20176;-91
2024/01/24 04:02:23;;;;;;;27.50;11.50;;;;;;;;;;6073248;23;20155;-90
2024/01/24 04:05:28;;;;;;;29.33;11.70;;;;;;;;;;6056948;23;20167;-92
2024/01/24 04:08:34;;;;;;;26.63;11.40;;;;;;;;;;6072798;23;20178;-92
2024/01/24 04:11:39;;;;;;;22.53;10.70;;;;;;;;;;6072709;23;20220;-90
2024/01/24 04:14:46;;;;;;;24.63;10.93;;;;;;;;;;6073219;23;20200;-94
2024/01/24 04:17:52;;;;;;;23.87;11.00;;;;;;;;;;6055094;23;20259;-92
2024/01/24 04:20:57;;;;;;;22.40;10.90;;;;;;;;;;6072472;23;20225;-91
2024/01/24 04:24:02;;;;;;;25.77;11.63;;;;;;;;;;6056214;23;20192;-92
2024/01/24 04:27:08;;;;;;;26.10;11.60;;;;;;;;;;6075078;23;20249;-91
2024/01/24 04:33:37;;;;;;;26.87;10.67;;;;;;;;;;6056919;23;20179;-94
2024/01/24 04:36:43;;;;;;;20.10;9.43;;;;;;;;;;6057599;23;20623;-92
2024/01/24 04:39:49;;;;;;;21.90;9.40;;;;;;;;;;6058150;23;20171;-92
2024/01/24 04:42:55;;;;;;;21.80;10.33;;;;;;;;;;6056772;23;20518;-92
2024/01/24 04:46:02;;;;;;;20.10;10.60;;;;;;;;;;6056407;23;20187;-92
2024/01/24 04:49:09;;;;;;;23.50;10.23;;;;;;;;;;6057532;23;20199;-93
2024/01/24 04:52:16;;;;;;;23.20;9.67;;;;;;;;;;6075611;23;20192;-91
2024/01/24 04:55:21;;;;;;;21.20;9.83;;;;;;;;;;6057501;23;20250;-91
2024/01/24 04:58:26;;;;;;;27.70;10.27;;;;;;;;;;6056209;23;20174;-91
2024/01/24 05:01:38;;;;;;;28.13;10.60;;;;;;;;;;6058006;23;20205;-92
2024/01/24 05:04:43;;;;;;;25.63;10.63;;;;;;;;;;6056980;23;20559;-92
2024/01/24 05:07:48;;;;;;;22.17;10.83;;;;;;;;;;6057526;23;20623;-92
2024/01/24 05:22:39;;;;;;;30.27;12.30;;;;;;;;;;6084456;23;20215;-92
2024/01/24 05:25:45;;;;;;;26.33;11.03;;;;;;;;;;6084527;23;20158;-92
2024/01/24 05:28:50;;;;;;;22.47;10.07;;;;;;;;;;6085417;23;20193;-93
2024/01/24 05:31:55;;;;;;;25.10;11.53;;;;;;;;;;6084557;23;20191;-91
2024/01/24 05:35:02;;;;;;;25.17;10.23;;;;;;;;;;6086430;23;20158;-91
2024/01/24 05:38:12;;;;;;;23.90;10.80;;;;;;;;;;6087019;23;20232;-91
2024/01/24 05:41:17;;;;;;;21.03;10.40;;;;;;;;;;6086746;23;20491;-91
2024/01/24 05:44:24;;;;;;;19.53;10.23;;;;;;;;;;6088794;23;20250;-92
2024/01/24 05:47:30;;;;;;;24.60;10.90;;;;;;;;;;6089047;23;20231;-93
2024/01/24 05:50:35;;;;;;;24.97;10.10;;;;;;;;;;6087604;23;20203;-91
2024/01/24 05:53:43;;;;;;;24.00;10.60;;;;;;;;;;6086829;23;20207;-92
2024/01/24 06:00:09;;;;;;;22.03;8.67;;;;;;;;;;6085960;23;20220;-93
2024/01/24 06:03:15;;;;;;;20.33;8.70;;;;;;;;;;6088486;23;20177;-93
2024/01/24 06:06:20;;;;;;;19.50;8.80;;;;;;;;;;6091755;23;20166;-91
2024/01/24 06:09:28;;;;;;;18.57;8.83;;;;;;;;;;6089737;23;20495;-91
2024/01/24 06:12:34;;;;;;;19.70;9.47;;;;;;;;;;6086490;23;20175;-92
2024/01/24 06:15:39;;;;;;;19.57;10.07;;;;;;;;;;6088558;23;20255;-92
2024/01/24 06:18:45;;;;;;;19.80;9.40;;;;;;;;;;6088715;23;20259;-92
2024/01/24 06:21:55;;;;;;;23.63;9.47;;;;;;;;;;6089046;23;20194;-92
2024/01/24 06:25:07;;;;;;;22.10;9.63;;;;;;;;;;6089600;23;20174;-92
2024/01/24 06:28:13;;;;;;;22.57;9.70;;;;;;;;;;6090341;23;20221;-92
2024/01/24 06:31:19;;;;;;;19.60;9.40;;;;;;;;;;6091488;23;20187;-93
2024/01/24 06:34:25;;;;;;;23.40;11.27;;;;;;;;;;6088364;23;20170;-90
2024/01/24 06:37:35;;;;;;;21.37;10.40;;;;;;;;;;6089306;23;20171;-90
2024/01/24 06:40:49;;;;;;;25.97;10.17;;;;;;;;;;6090056;23;20235;-90
2024/01/24 06:43:54;;;;;;;20.27;9.33;;;;;;;;;;6087264;23;20154;-91
2024/01/24 06:47:01;;;;;;;24.03;9.17;;;;;;;;;;6090135;23;20244;-92
2024/01/24 06:50:08;;;;;;;25.17;10.37;;;;;;;;;;6086456;23;20202;-92
2024/01/24 06:53:22;;;;;;;19.47;9.63;;;;;;;;;;6086192;23;20626;-92
2024/01/24 06:56:28;;;;;;;22.37;10.00;;;;;;;;;;6085639;23;20172;-93
2024/01/24 06:59:35;;;;;;;25.30;12.40;;;;;;;;;;6088365;23;20158;-92
2024/01/24 07:02:49;;;;;;;20.53;10.17;;;;;;;;;;6088654;23;20199;-94
2024/01/24 07:06:19;;;;;;;20.37;9.93;;;;;;;;;;6090262;23;20174;-91
2024/01/24 08:43:35;;;;;;;31.87;11.87;;;;;;;;;;6062262;23;20210;-92
2024/01/24 08:46:41;;;;;;;24.87;11.37;;;;;;;;;;6072223;23;20189;-91
2024/01/24 08:49:50;;;;;;;28.90;12.03;;;;;;;;;;6087180;23;20198;-93
2024/01/24 08:52:55;;;;;;;31.33;11.03;;;;;;;;;;6086000;23;20167;-91
2024/01/24 08:56:09;;;;;;;30.97;11.97;;;;;;;;;;6086213;23;20154;-91
2024/01/24 08:59:17;;;;;;;31.03;10.73;;;;;;;;;;6087021;23;20178;-92
2024/01/24 09:02:23;;;;;;;32.73;12.43;;;;;;;;;;6086888;23;20170;-92
2024/01/24 09:05:29;;;;;;;30.97;12.93;;;;;;;;;;6086714;23;20183;-91
2024/01/24 09:08:43;;;;;;;29.97;12.67;;;;;;;;;;6086008;23;20240;-91
2024/01/24 09:11:48;;;;;;;31.00;14.43;;;;;;;;;;6086257;23;20163;-93
2024/01/24 09:14:55;;;;;;;30.57;14.30;;;;;;;;;;6086745;23;20203;-91
2024/01/24 09:18:00;;;;;;;33.60;15.27;;;;;;;;;;6087065;23;20263;-92
2024/01/24 09:21:06;;;;;;;34.07;15.27;;;;;;;;;;6085586;23;20170;-93
2024/01/24 09:24:11;;;;;;;104.80;40.27;;;;;;;;;;6086317;23;20163;-91
2024/01/24 09:27:18;;;;;;;33.83;16.37;;;;;;;;;;6083897;23;20175;-93
2024/01/24 09:30:25;;;;;;;46.33;19.27;;;;;;;;;;6081793;23;20202;-92
2024/01/24 09:33:31;;;;;;;44.07;19.53;;;;;;;;;;6082028;23;20163;-92
2024/01/24 09:36:36;;;;;;;30.60;14.13;;;;;;;;;;6084755;23;20289;-91
2024/01/24 09:39:41;;;;;;;33.23;14.60;;;;;;;;;;6085277;23;20150;-92
2024/01/24 09:42:49;;;;;;;25.97;12.40;;;;;;;;;;6094399;23;20235;-91
2024/01/24 09:46:07;;;;;;;22.80;12.17;;;;;;;;;;6094848;23;20168;-90
2024/01/24 09:49:17;;;;;;;26.00;12.57;;;;;;;;;;6095730;23;20195;-93
2024/01/24 09:52:26;;;;;;;51.47;22.02;;;;;;;;;;6092838;23;20150;-91
2024/01/24 09:55:39;;;;;;;29.52;13.15;;;;;;;;;;6091756;23;20187;-92
2024/01/24 09:58:45;;;;;;;21.33;11.13;;;;;;;;;;6094144;23;20191;-91
2024/01/24 12:38:58;;;;;;;3.80;1.27;;;;;;;;;;6033061;23;20198;-92
2024/01/24 12:42:05;;;;;;;3.25;1.17;;;;;;;;;;6093383;23;20170;-92
2024/01/24 12:45:13;;;;;;;4.95;1.40;;;;;;;;;;6092669;23;20219;-93
2024/01/24 12:48:20;;;;;;;4.05;1.15;;;;;;;;;;6091028;23;20619;-93
2024/01/24 12:51:26;;;;;;;1.40;0.90;;;;;;;;;;6092566;23;20181;-93
2024/01/24 12:54:40;;;;;;;1.73;0.80;;;;;;;;;;6090321;23;20528;-91
2024/01/24 12:57:46;;;;;;;1.67;0.77;;;;;;;;;;6092226;23;20154;-91
2024/01/24 13:00:52;;;;;;;4.47;1.10;;;;;;;;;;6092097;23;20170;-90
2024/01/24 13:07:18;;;;;;;6.63;1.40;;;;;;;;;;6089381;23;20171;-92
2024/01/24 15:28:17;;;;;;;2.50;1.08;;;;;;;;;;6058474;23;20234;-93
2024/01/24 15:31:23;;;;;;;2.67;1.20;;;;;;;;;;6092367;23;20239;-93
2024/01/24 15:34:29;;;;;;;7.30;1.48;;;;;;;;;;6093084;23;20178;-91
2024/01/24 15:37:37;;;;;;;3.10;1.55;;;;;;;;;;6090984;23;20243;-92
2024/01/24 16:15:57;;;;;;;3.05;1.25;;;;;;;;;;6059124;23;20256;-95
2024/01/24 16:19:03;;;;;;;2.03;1.05;;;;;;;;;;6089926;23;20173;-92
2024/01/24 16:22:09;;;;;;;2.85;1.17;;;;;;;;;;6090931;23;20196;-93
2024/01/24 16:28:34;;;;;;;4.15;0.98;;;;;;;;;;6090219;23;20180;-93
2024/01/24 17:52:00;;;;;;;5.95;1.98;;;;;;;;;;6079515;23;20204;-91
2024/01/24 17:58:28;;;;;;;10.90;2.70;;;;;;;;;;6089863;23;20174;-91
2024/01/24 18:01:37;;;;;;;11.32;2.90;;;;;;;;;;6091434;23;20192;-91
2024/01/24 18:04:45;;;;;;;6.70;1.92;;;;;;;;;;6077132;23;20626;-91
2024/01/24 20:11:22;;;;;;;14.63;3.05;;;;;;;;;;6096306;23;20214;-90
2024/01/24 20:14:28;;;;;;;12.18;2.88;;;;;;;;;;6089807;23;20175;-93
2024/01/24 20:17:35;;;;;;;16.92;2.72;;;;;;;;;;6090822;23;20211;-91
2024/01/24 20:20:41;;;;;;;19.95;3.65;;;;;;;;;;6089390;23;20575;-92
2024/01/24 20:23:49;;;;;;;19.88;3.60;;;;;;;;;;6089825;23;20155;-91
2024/01/24 20:26:57;;;;;;;15.43;4.32;;;;;;;;;;6087862;23;20170;-88
2024/01/24 20:30:07;;;;;;;11.60;2.47;;;;;;;;;;6088450;23;20239;-90
2024/01/24 20:33:13;;;;;;;21.25;2.85;;;;;;;;;;6090941;23;20170;-92
2024/01/24 22:18:18;;;;;;;20.80;4.00;;;;;;;;;;6012547;23;20340;-92
2024/01/24 22:21:24;;;;;;;19.90;3.08;;;;;;;;;;6012477;23;20176;-93
2024/01/24 22:24:28;;;;;;;23.05;3.58;;;;;;;;;;6010793;23;20179;-91
2024/01/24 22:27:33;;;;;;;22.00;3.33;;;;;;;;;;6009600;23;20167;-91
2024/01/24 22:30:39;;;;;;;19.55;3.83;;;;;;;;;;6009842;23;20195;-89
2024/01/24 22:33:46;;;;;;;16.13;3.00;;;;;;;;;;6010591;23;20196;-91
2024/01/24 22:36:51;;;;;;;13.60;2.58;;;;;;;;;;6010499;23;20184;-92
2024/01/24 22:39:56;;;;;;;16.23;2.80;;;;;;;;;;6013998;23;20160;-92
2024/01/24 22:43:02;;;;;;;21.80;3.10;;;;;;;;;;6011923;23;20268;-92
2024/01/24 22:46:07;;;;;;;18.13;3.10;;;;;;;;;;6012234;23;20172;-91
2024/01/24 22:49:15;;;;;;;16.40;3.22;;;;;;;;;;6014719;23;20502;-92
2024/01/24 22:52:20;;;;;;;21.52;3.45;;;;;;;;;;6011969;23;20256;-88
2024/01/24 22:55:25;;;;;;;24.40;3.40;;;;;;;;;;6010941;23;20241;-88
2024/01/24 22:58:30;;;;;;;23.80;3.45;;;;;;;;;;6028938;23;20167;-91
2024/01/24 23:01:36;;;;;;;22.30;4.53;;;;;;;;;;6010275;23;20246;-92
2024/01/24 23:04:43;;;;;;;25.95;3.95;;;;;;;;;;6011299;23;20155;-91
2024/01/24 23:07:48;;;;;;;14.85;3.47;;;;;;;;;;6011104;23;20171;-92
2024/01/24 23:10:54;;;;;;;20.80;3.53;;;;;;;;;;6026987;23;20183;-92
2024/01/24 23:13:59;;;;;;;13.27;2.90;;;;;;;;;;6009834;23;20167;-90
2024/01/24 23:17:04;;;;;;;20.45;3.33;;;;;;;;;;6025961;23;20253;-91
2024/01/24 23:20:12;;;;;;;15.13;3.05;;;;;;;;;;6009842;23;20179;-90
2024/01/24 23:23:17;;;;;;;19.23;2.97;;;;;;;;;;6024990;23;20171;-91
2024/01/24 23:26:22;;;;;;;20.70;3.78;;;;;;;;;;6008634;23;20151;-92
2024/01/24 23:29:28;;;;;;;17.40;3.35;;;;;;;;;;6013490;23;20152;-92
2024/01/24 23:32:33;;;;;;;18.20;3.30;;;;;;;;;;6009775;23;20301;-93
2024/01/24 23:35:40;;;;;;;23.05;3.00;;;;;;;;;;6009279;23;20197;-92
2024/01/24 23:38:48;;;;;;;23.92;3.35;;;;;;;;;;6008395;23;20166;-92
2024/01/24 23:41:53;;;;;;;19.50;3.47;;;;;;;;;;6008711;23;20176;-91
2024/01/24 23:44:59;;;;;;;23.30;3.60;;;;;;;;;;6009837;23;20175;-92
2024/01/24 23:48:04;;;;;;;16.15;2.55;;;;;;;;;;6013323;23;20187;-90
2024/01/24 23:51:11;;;;;;;24.20;3.03;;;;;;;;;;6028774;23;20198;-93
2024/01/24 23:54:17;;;;;;;16.33;2.85;;;;;;;;;;6011098;23;20239;-91
2024/01/24 23:57:23;;;;;;;15.45;3.15;;;;;;;;;;6013836;23;20167;-94
